Jefferson, Maine
Current Conditions -  °F | °C
As of 5:53 PM on Thursday 23 Oct 2014 (Local Time) from KAUG Reporting Station
Moderate Rain Moderate Rain  
Wind Chill: 41°   Ceiling: 700
Heat Index: 48°   Visibility: 5mi
Dew Point: 46°   Wind: 18mph
Humidity: 93%   Direction: 10°N
Pressure: 29.8"   Gusts: 25mph
Location:  44.21°N, 69.45°W
Report Text: KAUG 232153Z AUTO 01016G22KT 5SM RA BR BKN007 OVC030 09/08 A2980 RMK AO2 SLP094 P0006 T00890078
Loading
Personal Weather Stations






























Interactive Weather Map
Tropical Storm Tracking
New forecast layout! Learn more

10-Day Weather Forecast

Advertisements
Track Severe Weather on mobile